createdAt,value
2023-01-29T00:00:02.511Z,24.42
2023-01-29T00:00:12.769Z,24.44
2023-01-29T00:00:22.887Z,24.43
2023-01-29T00:00:32.902Z,24.43
2023-01-29T00:00:43.165Z,24.44
2023-01-29T00:00:53.164Z,24.45
2023-01-29T00:01:03.282Z,24.44
2023-01-29T00:01:13.538Z,24.45
2023-01-29T00:01:23.558Z,24.45
2023-01-29T00:01:33.550Z,24.45
2023-01-29T00:01:43.940Z,24.46
2023-01-29T00:01:53.992Z,24.46
2023-01-29T00:02:04.096Z,24.45
2023-01-29T00:02:14.168Z,24.45
2023-01-29T00:02:24.316Z,24.46
2023-01-29T00:02:34.311Z,24.46
2023-01-29T00:02:44.503Z,24.46
2023-01-29T00:02:54.553Z,24.46
2023-01-29T00:03:04.583Z,24.46
2023-01-29T00:03:14.695Z,24.47
2023-01-29T00:03:24.884Z,24.46
2023-01-29T00:03:34.870Z,24.46
2023-01-29T00:03:44.879Z,24.47
2023-01-29T00:03:55.131Z,24.48
2023-01-29T00:04:05.252Z,24.47
2023-01-29T00:04:15.262Z,24.47
2023-01-29T00:04:25.505Z,24.47
2023-01-29T00:04:35.516Z,24.47
2023-01-29T00:04:45.627Z,24.48
2023-01-29T00:04:59.038Z,24.47
2023-01-29T00:05:25.523Z,24.46
2023-01-29T00:05:27.399Z,24.41
2023-01-29T00:05:28.146Z,24.38
2023-01-29T00:05:36.130Z,24.39
2023-01-29T00:05:46.143Z,24.40
2023-01-29T00:05:56.153Z,24.42
2023-01-29T00:06:06.161Z,24.42
2023-01-29T00:06:16.176Z,24.43
2023-01-29T00:06:26.549Z,24.43
2023-01-29T00:06:36.548Z,24.44
2023-01-29T00:06:46.665Z,24.45
2023-01-29T00:06:56.917Z,24.45
2023-01-29T00:07:06.920Z,24.45
2023-01-29T00:07:16.943Z,24.45
2023-01-29T00:07:26.944Z,24.45
2023-01-29T00:07:36.955Z,24.45
2023-01-29T00:07:46.994Z,24.45
2023-01-29T00:07:56.976Z,24.45
2023-01-29T00:08:07.092Z,24.46
2023-01-29T00:08:17.091Z,24.45
2023-01-29T00:08:27.221Z,24.45
2023-01-29T00:08:37.360Z,24.45
2023-01-29T00:08:47.506Z,24.46
2023-01-29T00:08:57.502Z,24.46
2023-01-29T00:09:07.800Z,24.45
2023-01-29T00:09:17.783Z,24.45
2023-01-29T00:09:27.789Z,24.46
2023-01-29T00:09:37.785Z,24.46
2023-01-29T00:09:47.815Z,24.46
2023-01-29T00:09:57.795Z,24.47
2023-01-29T00:10:07.911Z,24.46
2023-01-29T00:10:18.166Z,24.47
2023-01-29T00:10:27.930Z,24.46
2023-01-29T00:10:37.934Z,24.47
2023-01-29T00:10:48.201Z,24.47
2023-01-29T00:10:58.211Z,24.47
2023-01-29T00:11:08.224Z,24.48
2023-01-29T00:11:18.340Z,24.48
2023-01-29T00:11:28.325Z,24.48
2023-01-29T00:11:38.327Z,24.48
2023-01-29T00:11:48.334Z,24.47
2023-01-29T00:11:58.345Z,24.47
2023-01-29T00:12:08.341Z,24.48
2023-01-29T00:12:18.351Z,24.48
2023-01-29T00:12:28.351Z,24.48
2023-01-29T00:12:38.360Z,24.48
2023-01-29T00:12:48.375Z,24.47
2023-01-29T00:12:58.374Z,24.47
2023-01-29T00:13:08.378Z,24.48
2023-01-29T00:13:18.408Z,24.47
2023-01-29T00:13:28.409Z,24.48
2023-01-29T00:13:38.414Z,24.48
2023-01-29T00:13:49.192Z,24.47
2023-01-29T00:13:58.617Z,24.47
2023-01-29T00:14:08.737Z,24.48
2023-01-29T00:14:18.747Z,24.49
2023-01-29T00:14:28.873Z,24.49
2023-01-29T00:14:38.869Z,24.49
2023-01-29T00:14:48.881Z,24.48
2023-01-29T00:14:58.886Z,24.48
2023-01-29T00:15:08.900Z,24.48
2023-01-29T00:15:18.922Z,24.48
2023-01-29T00:15:28.918Z,24.48
2023-01-29T00:15:38.928Z,24.48
2023-01-29T00:15:49.058Z,24.49
2023-01-29T00:15:59.065Z,24.49
2023-01-29T00:16:09.063Z,24.49
2023-01-29T00:16:19.066Z,24.48
2023-01-29T00:16:29.326Z,24.49
2023-01-29T00:16:39.415Z,24.49
2023-01-29T00:16:49.475Z,24.48
2023-01-29T00:16:59.793Z,24.49
2023-01-29T00:17:09.850Z,24.49
2023-01-29T00:17:19.908Z,24.48
2023-01-29T00:17:29.938Z,24.48
2023-01-29T00:17:39.947Z,24.48
2023-01-29T00:17:50.112Z,24.48
2023-01-29T00:18:00.138Z,24.48
2023-01-29T00:18:10.174Z,24.48
2023-01-29T00:18:20.174Z,24.48
2023-01-29T00:18:30.295Z,24.48
2023-01-29T00:18:40.444Z,24.48
2023-01-29T00:18:50.433Z,24.47
2023-01-29T00:19:00.437Z,24.48
2023-01-29T00:19:10.809Z,24.48
2023-01-29T00:19:20.820Z,24.48
2023-01-29T00:19:30.827Z,24.48
2023-01-29T00:19:40.826Z,24.48
2023-01-29T00:19:50.954Z,24.48
2023-01-29T00:20:00.953Z,24.48
2023-01-29T00:20:10.959Z,24.47
2023-01-29T00:20:20.980Z,24.47
2023-01-29T00:20:30.996Z,24.48
2023-01-29T00:20:40.984Z,24.48
2023-01-29T00:20:51.237Z,24.48
2023-01-29T00:21:01.247Z,24.47
2023-01-29T00:21:11.242Z,24.48
2023-01-29T00:21:21.245Z,24.47
2023-01-29T00:21:31.244Z,24.47
2023-01-29T00:21:41.256Z,24.47
2023-01-29T00:21:51.269Z,24.47
2023-01-29T00:22:01.280Z,24.48
2023-01-29T00:22:11.292Z,24.47
2023-01-29T00:22:21.290Z,24.47
2023-01-29T00:22:31.308Z,24.47
2023-01-29T00:22:41.405Z,24.47
2023-01-29T00:22:51.423Z,24.47
2023-01-29T00:23:01.427Z,24.47
2023-01-29T00:23:11.546Z,24.48
2023-01-29T00:23:21.548Z,24.47
2023-01-29T00:23:31.568Z,24.48
2023-01-29T00:23:41.703Z,24.48
2023-01-29T00:23:51.714Z,24.48
2023-01-29T00:24:01.844Z,24.48
2023-01-29T00:24:12.143Z,24.48
2023-01-29T00:24:22.210Z,24.48
2023-01-29T00:24:32.264Z,24.47
2023-01-29T00:24:42.268Z,24.47
2023-01-29T00:24:52.317Z,24.48
2023-01-29T00:25:02.336Z,24.47
2023-01-29T00:25:12.317Z,24.48
2023-01-29T00:25:22.324Z,24.47
2023-01-29T00:25:32.445Z,24.47
2023-01-29T00:25:42.448Z,24.47
2023-01-29T00:25:52.715Z,24.48
2023-01-29T00:26:02.727Z,24.48
2023-01-29T00:26:12.739Z,24.49
2023-01-29T00:26:22.739Z,24.48
2023-01-29T00:26:32.748Z,24.48
2023-01-29T00:26:42.768Z,24.49
2023-01-29T00:26:52.780Z,24.49
2023-01-29T00:27:02.777Z,24.49
2023-01-29T00:27:12.774Z,24.50
2023-01-29T00:27:22.792Z,24.49
2023-01-29T00:27:32.806Z,24.49
2023-01-29T00:27:42.823Z,24.49
2023-01-29T00:27:52.813Z,24.49
2023-01-29T00:28:02.848Z,24.49
2023-01-29T00:28:12.850Z,24.49
2023-01-29T00:28:22.851Z,24.49
2023-01-29T00:28:32.865Z,24.49
2023-01-29T00:28:42.870Z,24.49
2023-01-29T00:28:52.889Z,24.49
2023-01-29T00:29:02.894Z,24.49
2023-01-29T00:29:12.895Z,24.50
2023-01-29T00:29:22.913Z,24.50
2023-01-29T00:29:32.919Z,24.50
2023-01-29T00:29:42.920Z,24.49
2023-01-29T00:29:53.297Z,24.49
2023-01-29T00:30:03.306Z,24.48
2023-01-29T00:30:13.404Z,24.49
2023-01-29T00:30:23.402Z,24.49
2023-01-29T00:30:33.411Z,24.48
2023-01-29T00:30:43.423Z,24.48
2023-01-29T00:30:53.436Z,24.49
2023-01-29T00:31:03.505Z,24.49
2023-01-29T00:31:13.598Z,24.49
2023-01-29T00:31:23.747Z,24.49
2023-01-29T00:31:33.645Z,24.49
2023-01-29T00:31:43.620Z,24.49
2023-01-29T00:31:53.788Z,24.48
2023-01-29T00:32:03.878Z,24.49
2023-01-29T00:32:14.053Z,24.49
2023-01-29T00:32:24.066Z,24.49
2023-01-29T00:32:34.073Z,24.49
2023-01-29T00:32:44.341Z,24.48
2023-01-29T00:32:54.335Z,24.49
2023-01-29T00:33:04.331Z,24.49
2023-01-29T00:33:14.340Z,24.49
2023-01-29T00:33:24.347Z,24.48
2023-01-29T00:33:34.374Z,24.48
2023-01-29T00:33:44.366Z,24.48
2023-01-29T00:33:54.390Z,24.49
2023-01-29T00:34:04.409Z,24.49
2023-01-29T00:34:14.417Z,24.49
2023-01-29T00:34:24.423Z,24.49
2023-01-29T00:34:34.425Z,24.48
2023-01-29T00:34:44.425Z,24.49
2023-01-29T00:34:54.430Z,24.49
2023-01-29T00:35:04.448Z,24.49
2023-01-29T00:35:14.453Z,24.49
2023-01-29T00:35:24.463Z,24.49
2023-01-29T00:35:34.482Z,24.48
2023-01-29T00:35:44.485Z,24.49
2023-01-29T00:35:54.497Z,24.48
2023-01-29T00:36:04.501Z,24.48
2023-01-29T00:36:14.519Z,24.49
2023-01-29T00:36:24.525Z,24.49
2023-01-29T00:36:34.537Z,24.48
2023-01-29T00:36:44.545Z,24.48
2023-01-29T00:36:54.626Z,24.48
2023-01-29T00:37:04.624Z,24.49
2023-01-29T00:37:14.625Z,24.49
2023-01-29T00:37:24.632Z,24.49
2023-01-29T00:37:34.649Z,24.48
2023-01-29T00:37:44.664Z,24.48
2023-01-29T00:37:54.708Z,24.48
2023-01-29T00:38:04.720Z,24.48
2023-01-29T00:38:14.741Z,24.48
2023-01-29T00:38:24.764Z,24.48
2023-01-29T00:38:34.756Z,24.48
2023-01-29T00:38:44.765Z,24.48
2023-01-29T00:38:54.966Z,24.48
2023-01-29T00:39:04.835Z,24.48
2023-01-29T00:39:14.850Z,24.48
2023-01-29T00:39:29.381Z,24.48
2023-01-29T00:39:47.054Z,24.42
2023-01-29T00:39:48.066Z,24.39
2023-01-29T00:39:55.095Z,24.39
2023-01-29T00:40:05.076Z,24.42
2023-01-29T00:40:15.799Z,24.44
2023-01-29T00:40:25.561Z,24.44
2023-01-29T00:40:35.571Z,24.45
2023-01-29T00:40:45.575Z,24.46
2023-01-29T00:40:55.953Z,24.45
2023-01-29T00:41:05.949Z,24.45
2023-01-29T00:41:16.071Z,24.46
2023-01-29T00:41:26.324Z,24.47
2023-01-29T00:41:36.466Z,24.47
2023-01-29T00:41:46.475Z,24.47
2023-01-29T00:41:56.794Z,24.46
2023-01-29T00:42:06.780Z,24.45
2023-01-29T00:42:16.780Z,24.46
2023-01-29T00:42:26.780Z,24.46
2023-01-29T00:42:36.806Z,24.47
2023-01-29T00:42:46.798Z,24.47
2023-01-29T00:42:56.816Z,24.47
2023-01-29T00:43:06.846Z,24.47
2023-01-29T00:43:16.843Z,24.47
2023-01-29T00:43:26.847Z,24.48
2023-01-29T00:43:36.850Z,24.48
2023-01-29T00:43:46.856Z,24.47
2023-01-29T00:43:56.867Z,24.48
2023-01-29T00:44:06.886Z,24.48
2023-01-29T00:44:16.913Z,24.47
2023-01-29T00:44:26.939Z,24.47
2023-01-29T00:44:36.927Z,24.48
2023-01-29T00:44:46.920Z,24.48
2023-01-29T00:44:56.930Z,24.48
2023-01-29T00:45:06.952Z,24.48
2023-01-29T00:45:16.958Z,24.48
2023-01-29T00:45:27.067Z,24.48
2023-01-29T00:45:37.069Z,24.48
2023-01-29T00:45:47.091Z,24.49
2023-01-29T00:45:57.342Z,24.48
2023-01-29T00:46:07.346Z,24.49
2023-01-29T00:46:17.462Z,24.48
2023-01-29T00:46:27.406Z,24.48
2023-01-29T00:46:37.489Z,24.48
2023-01-29T00:46:47.614Z,24.48
2023-01-29T00:46:57.542Z,24.48
2023-01-29T00:47:07.594Z,24.48
2023-01-29T00:47:17.605Z,24.48
2023-01-29T00:47:27.616Z,24.48
2023-01-29T00:47:37.892Z,24.48
2023-01-29T00:47:47.898Z,24.49
2023-01-29T00:47:57.914Z,24.49
2023-01-29T00:48:07.919Z,24.48
2023-01-29T00:48:17.927Z,24.48
2023-01-29T00:48:27.937Z,24.48
2023-01-29T00:48:37.939Z,24.49
2023-01-29T00:48:48.073Z,24.49
2023-01-29T00:49:00.640Z,24.48
2023-01-29T00:49:08.201Z,24.47
2023-01-29T00:49:18.199Z,24.47
2023-01-29T00:49:28.340Z,24.46
2023-01-29T00:49:38.352Z,24.47
2023-01-29T00:49:48.352Z,24.47
2023-01-29T00:49:58.363Z,24.48
2023-01-29T00:50:08.376Z,24.48
2023-01-29T00:50:18.930Z,24.48
2023-01-29T00:50:28.441Z,24.47
2023-01-29T00:50:38.440Z,24.47
2023-01-29T00:50:48.437Z,24.47
2023-01-29T00:50:58.448Z,24.48
2023-01-29T00:51:08.568Z,24.48
2023-01-29T00:51:18.580Z,24.48
2023-01-29T00:51:28.585Z,24.48
2023-01-29T00:51:38.587Z,24.48
2023-01-29T00:51:48.840Z,24.48
2023-01-29T00:51:58.843Z,24.48
2023-01-29T00:52:08.857Z,24.48
2023-01-29T00:52:18.859Z,24.48
2023-01-29T00:52:29.001Z,24.49
2023-01-29T00:52:39.018Z,24.48
2023-01-29T00:52:49.028Z,24.48
2023-01-29T00:52:59.039Z,24.49
2023-01-29T00:53:09.158Z,24.49
2023-01-29T00:53:19.160Z,24.48
2023-01-29T00:53:29.302Z,24.48
2023-01-29T00:53:39.304Z,24.48
2023-01-29T00:53:49.420Z,24.48
2023-01-29T00:53:59.678Z,24.49
2023-01-29T00:54:09.814Z,24.49
2023-01-29T00:54:19.818Z,24.49
2023-01-29T00:54:31.907Z,24.48
2023-01-29T00:54:40.120Z,24.47
2023-01-29T00:54:50.120Z,24.48
2023-01-29T00:55:00.206Z,24.47
2023-01-29T00:55:10.237Z,24.47
2023-01-29T00:55:20.232Z,24.48
2023-01-29T00:55:30.364Z,24.48
2023-01-29T00:55:40.363Z,24.47
2023-01-29T00:55:50.384Z,24.47
2023-01-29T00:56:00.396Z,24.48
2023-01-29T00:56:10.381Z,24.47
2023-01-29T00:56:20.395Z,24.48
2023-01-29T00:56:30.519Z,24.47
2023-01-29T00:56:40.527Z,24.48
2023-01-29T00:56:50.641Z,24.48
2023-01-29T00:57:00.647Z,24.48
2023-01-29T00:57:10.683Z,24.48
2023-01-29T00:57:20.805Z,24.48
2023-01-29T00:57:30.971Z,24.48
2023-01-29T00:57:40.958Z,24.48
2023-01-29T00:57:51.230Z,24.49
2023-01-29T00:58:01.248Z,24.49
2023-01-29T00:58:11.249Z,24.48
2023-01-29T00:58:21.257Z,24.49
2023-01-29T00:58:31.265Z,24.49
2023-01-29T00:58:41.280Z,24.49
2023-01-29T00:58:51.293Z,24.49
2023-01-29T00:59:01.304Z,24.48
2023-01-29T00:59:11.311Z,24.48
2023-01-29T00:59:21.318Z,24.48
2023-01-29T00:59:31.350Z,24.48
2023-01-29T00:59:41.338Z,24.48
2023-01-29T00:59:51.347Z,24.48
2023-01-29T01:00:01.385Z,24.48
2023-01-29T01:00:11.380Z,24.48
2023-01-29T01:00:21.378Z,24.48
2023-01-29T01:00:31.437Z,24.48
2023-01-29T01:00:41.525Z,24.47
2023-01-29T01:00:51.621Z,24.48
2023-01-29T01:01:01.710Z,24.47
2023-01-29T01:01:11.681Z,24.47
2023-01-29T01:01:21.662Z,24.47
2023-01-29T01:01:31.788Z,24.48
2023-01-29T01:01:41.826Z,24.47
2023-01-29T01:01:52.249Z,24.47
2023-01-29T01:02:02.159Z,24.47
2023-01-29T01:02:12.259Z,24.47
2023-01-29T01:02:22.463Z,24.47
2023-01-29T01:02:32.280Z,24.47
2023-01-29T01:02:42.280Z,24.47
2023-01-29T01:02:52.284Z,24.48
2023-01-29T01:03:02.565Z,24.47
2023-01-29T01:03:12.586Z,24.48
2023-01-29T01:03:22.572Z,24.47
2023-01-29T01:03:32.970Z,24.48
2023-01-29T01:03:42.977Z,24.48
2023-01-29T01:03:52.967Z,24.47
2023-01-29T01:04:02.981Z,24.48
2023-01-29T01:04:12.980Z,24.47
2023-01-29T01:04:22.989Z,24.48
2023-01-29T01:04:35.006Z,24.47
2023-01-29T01:04:43.045Z,24.45
2023-01-29T01:04:53.045Z,24.47
2023-01-29T01:05:03.056Z,24.46
2023-01-29T01:05:13.175Z,24.46
2023-01-29T01:05:23.179Z,24.47
2023-01-29T01:05:33.305Z,24.47
2023-01-29T01:05:43.309Z,24.46
2023-01-29T01:05:53.306Z,24.46
2023-01-29T01:06:03.319Z,24.46
2023-01-29T01:06:13.325Z,24.46
2023-01-29T01:06:23.331Z,24.46
2023-01-29T01:06:33.325Z,24.46
2023-01-29T01:06:43.345Z,24.46
2023-01-29T01:06:53.464Z,24.47
2023-01-29T01:07:03.472Z,24.47
2023-01-29T01:07:13.731Z,24.46
2023-01-29T01:07:23.733Z,24.46
2023-01-29T01:07:33.737Z,24.46
2023-01-29T01:07:43.731Z,24.46
2023-01-29T01:07:53.742Z,24.46
2023-01-29T01:08:03.764Z,24.47
2023-01-29T01:08:13.752Z,24.46
2023-01-29T01:08:23.755Z,24.46
2023-01-29T01:08:33.873Z,24.46
2023-01-29T01:08:43.878Z,24.47
2023-01-29T01:08:54.144Z,24.46
2023-01-29T01:09:04.154Z,24.46
2023-01-29T01:09:14.150Z,24.46
2023-01-29T01:09:24.156Z,24.46
2023-01-29T01:09:34.282Z,24.46
2023-01-29T01:09:44.276Z,24.46
2023-01-29T01:09:54.404Z,24.46
2023-01-29T01:10:04.468Z,24.46
2023-01-29T01:10:14.880Z,24.47
2023-01-29T01:10:24.497Z,24.46
2023-01-29T01:10:34.635Z,24.46
2023-01-29T01:10:44.640Z,24.46
2023-01-29T01:10:54.775Z,24.46
2023-01-29T01:11:05.030Z,24.46
2023-01-29T01:11:15.038Z,24.46
2023-01-29T01:11:25.042Z,24.46
2023-01-29T01:11:35.038Z,24.46
2023-01-29T01:11:45.049Z,24.46
2023-01-29T01:11:55.169Z,24.46
2023-01-29T01:12:05.173Z,24.46
2023-01-29T01:12:15.298Z,24.47
2023-01-29T01:12:25.296Z,24.47
2023-01-29T01:12:35.422Z,24.47
2023-01-29T01:12:45.423Z,24.47
2023-01-29T01:12:55.546Z,24.47
2023-01-29T01:13:05.664Z,24.47
2023-01-29T01:13:15.809Z,24.47
2023-01-29T01:13:25.812Z,24.46
2023-01-29T01:13:35.831Z,24.47
2023-01-29T01:13:45.830Z,24.46
2023-01-29T01:13:55.957Z,24.47
2023-01-29T01:14:05.961Z,24.46
2023-01-29T01:14:15.961Z,24.47
2023-01-29T01:14:25.985Z,24.46
2023-01-29T01:14:36.178Z,24.46
2023-01-29T01:14:46.180Z,24.46
2023-01-29T01:14:56.315Z,24.46
2023-01-29T01:15:06.322Z,24.46
2023-01-29T01:15:16.329Z,24.47
2023-01-29T01:15:26.332Z,24.47
2023-01-29T01:15:36.358Z,24.46
2023-01-29T01:15:46.347Z,24.46
2023-01-29T01:15:56.375Z,24.46
2023-01-29T01:16:06.397Z,24.46
2023-01-29T01:16:16.544Z,24.47
2023-01-29T01:16:26.619Z,24.46
2023-01-29T01:16:36.901Z,24.46
2023-01-29T01:16:46.889Z,24.46
2023-01-29T01:16:56.891Z,24.46
2023-01-29T01:17:06.895Z,24.46
2023-01-29T01:17:17.027Z,24.46
2023-01-29T01:17:27.033Z,24.46
2023-01-29T01:17:37.164Z,24.45
2023-01-29T01:17:47.161Z,24.45
2023-01-29T01:17:57.283Z,24.46
2023-01-29T01:18:07.304Z,24.46
2023-01-29T01:18:17.321Z,24.46
2023-01-29T01:18:27.312Z,24.46
2023-01-29T01:18:37.317Z,24.47
2023-01-29T01:18:47.327Z,24.46
2023-01-29T01:18:57.333Z,24.46
2023-01-29T01:19:07.333Z,24.46
2023-01-29T01:19:17.471Z,24.45
2023-01-29T01:19:27.492Z,24.45
2023-01-29T01:19:37.501Z,24.45
2023-01-29T01:19:47.501Z,24.46
2023-01-29T01:19:57.760Z,24.45
2023-01-29T01:20:07.760Z,24.45
2023-01-29T01:20:18.222Z,24.46
2023-01-29T01:20:28.146Z,24.46
2023-01-29T01:20:38.154Z,24.46
2023-01-29T01:20:48.162Z,24.45
2023-01-29T01:20:58.185Z,24.46
2023-01-29T01:21:08.180Z,24.46
2023-01-29T01:21:18.182Z,24.46
2023-01-29T01:21:28.182Z,24.46
2023-01-29T01:21:38.311Z,24.47
2023-01-29T01:21:48.409Z,24.47
2023-01-29T01:21:58.411Z,24.46
2023-01-29T01:22:08.544Z,24.46
2023-01-29T01:22:18.547Z,24.46
2023-01-29T01:22:28.553Z,24.46
2023-01-29T01:22:38.565Z,24.46
2023-01-29T01:22:48.573Z,24.45
2023-01-29T01:22:58.584Z,24.46
2023-01-29T01:23:08.605Z,24.46
2023-01-29T01:23:18.620Z,24.46
2023-01-29T01:23:28.627Z,24.46
2023-01-29T01:23:38.622Z,24.46
2023-01-29T01:23:48.625Z,24.46
2023-01-29T01:23:58.667Z,24.46
2023-01-29T01:24:08.727Z,24.45
2023-01-29T01:24:18.858Z,24.46
2023-01-29T01:24:28.803Z,24.46
2023-01-29T01:24:38.847Z,24.46
2023-01-29T01:24:48.869Z,24.46
2023-01-29T01:24:58.861Z,24.46
2023-01-29T01:25:08.883Z,24.47
2023-01-29T01:25:18.888Z,24.46
2023-01-29T01:25:28.909Z,24.46
2023-01-29T01:25:38.910Z,24.48
2023-01-29T01:25:48.914Z,24.47
2023-01-29T01:25:58.916Z,24.46
2023-01-29T01:26:09.316Z,24.47
2023-01-29T01:26:19.319Z,24.46
2023-01-29T01:26:29.328Z,24.46
2023-01-29T01:26:39.332Z,24.46
2023-01-29T01:26:49.357Z,24.46
2023-01-29T01:26:59.363Z,24.46
2023-01-29T01:27:09.365Z,24.46
2023-01-29T01:27:19.374Z,24.47
2023-01-29T01:27:29.492Z,24.46
2023-01-29T01:27:39.489Z,24.46
2023-01-29T01:27:49.747Z,24.47
2023-01-29T01:28:00.427Z,24.46
2023-01-29T01:28:09.805Z,24.46
2023-01-29T01:28:19.809Z,24.46
2023-01-29T01:28:29.822Z,24.46
2023-01-29T01:28:39.819Z,24.46
2023-01-29T01:28:49.837Z,24.46
2023-01-29T01:28:59.843Z,24.46
2023-01-29T01:29:09.862Z,24.46
2023-01-29T01:29:19.863Z,24.46
2023-01-29T01:29:29.864Z,24.46
2023-01-29T01:29:39.884Z,24.46
2023-01-29T01:29:49.893Z,24.46
2023-01-29T01:29:59.896Z,24.46
2023-01-29T01:30:09.922Z,24.47
2023-01-29T01:30:19.978Z,24.46
2023-01-29T01:30:29.992Z,24.47
2023-01-29T01:30:40.018Z,24.47
2023-01-29T01:30:50.092Z,24.46
2023-01-29T01:31:00.156Z,24.46
2023-01-29T01:31:10.300Z,24.46
2023-01-29T01:31:20.376Z,24.47
2023-01-29T01:31:30.333Z,24.47
2023-01-29T01:31:40.436Z,24.46
2023-01-29T01:31:50.484Z,24.47
2023-01-29T01:32:00.585Z,24.46
2023-01-29T01:32:10.626Z,24.46
2023-01-29T01:32:20.629Z,24.46
2023-01-29T01:32:30.653Z,24.46
2023-01-29T01:32:40.653Z,24.46
2023-01-29T01:32:50.658Z,24.46
2023-01-29T01:33:00.927Z,24.45
2023-01-29T01:33:11.047Z,24.46
2023-01-29T01:33:21.047Z,24.46
2023-01-29T01:33:31.302Z,24.46
2023-01-29T01:33:41.323Z,24.45
2023-01-29T01:33:51.321Z,24.45
2023-01-29T01:34:01.337Z,24.45
2023-01-29T01:34:11.360Z,24.46
2023-01-29T01:34:21.359Z,24.46
2023-01-29T01:34:31.363Z,24.45
2023-01-29T01:34:41.369Z,24.46
2023-01-29T01:34:51.385Z,24.46
2023-01-29T01:35:01.390Z,24.46
2023-01-29T01:35:11.424Z,24.46
2023-01-29T01:35:21.434Z,24.45
2023-01-29T01:35:31.427Z,24.45
2023-01-29T01:35:41.428Z,24.45
2023-01-29T01:35:51.449Z,24.45
2023-01-29T01:36:01.462Z,24.45
2023-01-29T01:36:11.472Z,24.45
2023-01-29T01:36:21.471Z,24.45
2023-01-29T01:36:31.491Z,24.46
2023-01-29T01:36:41.490Z,24.46
2023-01-29T01:36:51.508Z,24.46
2023-01-29T01:37:01.536Z,24.46
2023-01-29T01:37:11.519Z,24.46
2023-01-29T01:37:21.529Z,24.46
2023-01-29T01:37:31.544Z,24.45
2023-01-29T01:37:41.565Z,24.45
2023-01-29T01:37:51.554Z,24.46
2023-01-29T01:38:01.579Z,24.46
2023-01-29T01:38:11.588Z,24.46
2023-01-29T01:38:21.587Z,24.46
2023-01-29T01:38:31.602Z,24.46
2023-01-29T01:38:41.630Z,24.46
2023-01-29T01:38:51.640Z,24.45
2023-01-29T01:39:01.638Z,24.46
2023-01-29T01:39:11.650Z,24.46
2023-01-29T01:39:21.675Z,24.46
2023-01-29T01:39:31.704Z,24.47
2023-01-29T01:39:41.682Z,24.45
2023-01-29T01:39:52.062Z,24.45
2023-01-29T01:40:02.087Z,24.46
2023-01-29T01:40:12.100Z,24.45
2023-01-29T01:40:22.075Z,24.45
2023-01-29T01:40:32.083Z,24.45
2023-01-29T01:40:42.098Z,24.45
2023-01-29T01:40:52.241Z,24.45
2023-01-29T01:41:02.250Z,24.45
2023-01-29T01:41:12.242Z,24.46
2023-01-29T01:41:22.241Z,24.45
2023-01-29T01:41:32.519Z,24.45
2023-01-29T01:41:42.528Z,24.46
2023-01-29T01:41:52.536Z,24.45
2023-01-29T01:42:02.543Z,24.47
2023-01-29T01:42:12.551Z,24.46
2023-01-29T01:42:22.563Z,24.46
2023-01-29T01:42:32.594Z,24.46
2023-01-29T01:42:42.581Z,24.46
2023-01-29T01:42:52.730Z,24.47
2023-01-29T01:43:02.730Z,24.46
2023-01-29T01:43:12.989Z,24.47
2023-01-29T01:43:22.991Z,24.47
2023-01-29T01:43:33.002Z,24.47
2023-01-29T01:43:43.005Z,24.46
2023-01-29T01:43:53.022Z,24.46
2023-01-29T01:44:03.031Z,24.46
2023-01-29T01:44:13.040Z,24.46
2023-01-29T01:44:23.054Z,24.46
2023-01-29T01:44:33.061Z,24.46
2023-01-29T01:44:43.059Z,24.47
2023-01-29T01:44:53.075Z,24.46
2023-01-29T01:45:03.100Z,24.46
2023-01-29T01:45:13.236Z,24.46
2023-01-29T01:45:23.258Z,24.46
2023-01-29T01:45:33.338Z,24.47
2023-01-29T01:45:43.273Z,24.46
2023-01-29T01:45:53.287Z,24.47
2023-01-29T01:46:03.578Z,24.46
2023-01-29T01:46:13.618Z,24.47
2023-01-29T01:46:23.631Z,24.47
2023-01-29T01:46:33.631Z,24.47
2023-01-29T01:46:43.650Z,24.46
2023-01-29T01:46:53.660Z,24.46
2023-01-29T01:47:03.658Z,24.46
2023-01-29T01:47:13.781Z,24.46
2023-01-29T01:47:23.792Z,24.46
2023-01-29T01:47:33.789Z,24.46
2023-01-29T01:47:44.045Z,24.46
2023-01-29T01:47:54.069Z,24.46
2023-01-29T01:48:04.086Z,24.47
2023-01-29T01:48:14.083Z,24.47
2023-01-29T01:48:24.091Z,24.47
2023-01-29T01:48:34.092Z,24.46
2023-01-29T01:48:44.100Z,24.46
2023-01-29T01:48:54.132Z,24.46
2023-01-29T01:49:04.145Z,24.46
2023-01-29T01:49:14.140Z,24.46
2023-01-29T01:49:24.158Z,24.46
2023-01-29T01:49:34.165Z,24.46
2023-01-29T01:49:44.168Z,24.45
2023-01-29T01:49:54.173Z,24.46
2023-01-29T01:50:04.178Z,24.46
2023-01-29T01:50:14.742Z,24.46
2023-01-29T01:50:24.282Z,24.46
2023-01-29T01:50:34.674Z,24.46
2023-01-29T01:50:44.671Z,24.46
2023-01-29T01:50:54.730Z,24.46
2023-01-29T01:51:04.714Z,24.46
2023-01-29T01:51:14.722Z,24.46
2023-01-29T01:51:24.739Z,24.46
2023-01-29T01:51:34.754Z,24.46
2023-01-29T01:51:44.757Z,24.46
2023-01-29T01:51:54.871Z,24.46
2023-01-29T01:52:04.884Z,24.46
2023-01-29T01:52:15.143Z,24.46
2023-01-29T01:52:25.159Z,24.46
2023-01-29T01:52:35.166Z,24.46
2023-01-29T01:52:45.175Z,24.46
2023-01-29T01:52:55.185Z,24.46
2023-01-29T01:53:05.215Z,24.46
2023-01-29T01:53:15.191Z,24.47
2023-01-29T01:53:25.197Z,24.47
2023-01-29T01:53:35.329Z,24.48
2023-01-29T01:53:45.338Z,24.47
2023-01-29T01:53:55.593Z,24.47
2023-01-29T01:54:05.592Z,24.46
2023-01-29T01:54:15.720Z,24.47
2023-01-29T01:54:25.985Z,24.47
2023-01-29T01:54:35.989Z,24.47
2023-01-29T01:54:45.997Z,24.47
2023-01-29T01:54:56.005Z,24.47
2023-01-29T01:55:06.032Z,24.46
2023-01-29T01:55:16.048Z,24.46
2023-01-29T01:55:26.032Z,24.47
2023-01-29T01:55:36.048Z,24.46
2023-01-29T01:55:46.063Z,24.46
2023-01-29T01:55:56.177Z,24.47
2023-01-29T01:56:06.439Z,24.46
2023-01-29T01:56:16.445Z,24.46
2023-01-29T01:56:26.461Z,24.47
2023-01-29T01:56:36.472Z,24.46
2023-01-29T01:56:46.481Z,24.47
2023-01-29T01:56:56.483Z,24.47
2023-01-29T01:57:06.496Z,24.47
2023-01-29T01:57:16.523Z,24.47
2023-01-29T01:57:26.522Z,24.47
2023-01-29T01:57:36.533Z,24.47
2023-01-29T01:57:46.536Z,24.47
2023-01-29T01:57:56.557Z,24.47
2023-01-29T01:58:06.558Z,24.47
2023-01-29T01:58:16.561Z,24.47
2023-01-29T01:58:26.584Z,24.47
2023-01-29T01:58:36.621Z,24.48
2023-01-29T01:58:46.602Z,24.48
2023-01-29T01:58:56.611Z,24.48
2023-01-29T01:59:06.619Z,24.48
2023-01-29T01:59:16.629Z,24.48
2023-01-29T01:59:26.635Z,24.48
2023-01-29T01:59:36.652Z,24.48
2023-01-29T01:59:46.657Z,24.48
2023-01-29T01:59:56.667Z,24.48
2023-01-29T02:00:06.678Z,24.48
2023-01-29T02:00:17.045Z,24.48
2023-01-29T02:00:26.707Z,24.47
2023-01-29T02:00:36.717Z,24.47
2023-01-29T02:00:46.775Z,24.47
2023-01-29T02:00:56.825Z,24.47
2023-01-29T02:01:06.902Z,24.47
2023-01-29T02:01:17.280Z,24.47
2023-01-29T02:01:27.433Z,24.47
2023-01-29T02:01:37.304Z,24.45
2023-01-29T02:01:47.566Z,24.44
2023-01-29T02:01:57.728Z,24.44
2023-01-29T02:02:07.740Z,24.43
2023-01-29T02:02:18.027Z,24.42
2023-01-29T02:02:28.071Z,24.41
2023-01-29T02:02:38.128Z,24.41
2023-01-29T02:02:48.388Z,24.40
2023-01-29T02:02:58.507Z,24.40
2023-01-29T02:03:08.516Z,24.39
2023-01-29T02:03:18.780Z,24.38
2023-01-29T02:03:28.809Z,24.37
2023-01-29T02:03:38.790Z,24.37
2023-01-29T02:03:48.810Z,24.36
2023-01-29T02:03:58.816Z,24.35
2023-01-29T02:04:08.833Z,24.35
2023-01-29T02:04:18.829Z,24.35
2023-01-29T02:04:28.840Z,24.34
2023-01-29T02:04:38.847Z,24.33
2023-01-29T02:04:48.850Z,24.32
2023-01-29T02:04:58.871Z,24.32
2023-01-29T02:05:08.882Z,24.31
2023-01-29T02:05:18.884Z,24.30
2023-01-29T02:05:28.886Z,24.29
2023-01-29T02:05:39.008Z,24.28
2023-01-29T02:05:49.013Z,24.28
2023-01-29T02:05:59.029Z,24.28
2023-01-29T02:06:09.293Z,24.28
2023-01-29T02:06:19.308Z,24.28
2023-01-29T02:06:29.301Z,24.28
2023-01-29T02:06:39.296Z,24.28
2023-01-29T02:06:49.320Z,24.28
2023-01-29T02:06:59.315Z,24.28
2023-01-29T02:07:09.328Z,24.27
2023-01-29T02:07:19.338Z,24.28
2023-01-29T02:07:29.348Z,24.28
2023-01-29T02:07:39.365Z,24.29
2023-01-29T02:07:49.375Z,24.29
2023-01-29T02:07:59.454Z,24.29
2023-01-29T02:08:09.455Z,24.29
2023-01-29T02:08:19.468Z,24.30
2023-01-29T02:08:29.483Z,24.30
2023-01-29T02:08:39.488Z,24.29
2023-01-29T02:08:49.490Z,24.29
2023-01-29T02:08:59.515Z,24.30
2023-01-29T02:09:09.525Z,24.29
2023-01-29T02:09:19.534Z,24.29